Irvington, Virginia
Current Conditions -  °F | °C
As of 2:55 AM on Wednesday 26 Nov 2014 (Local Time) from KW75 Reporting Station
Overcast Overcast  
Wind Chill: 45°   Ceiling: 3800
Heat Index: 47°   Visibility: 7mi
Dew Point: 44°   Wind: 6mph
Humidity: 87%   Direction: 50°NE
Pressure: 30.06"   Gusts: NA
Location:  37.66°N, 76.42°W
Report Text: KW75 260755Z AUTO 05005KT 7SM SCT033 BKN038 OVC050 09/07 A3006 RMK AO1 P0003 T00850065
Loading
Personal Weather Stations






























Interactive Weather Map New forecast layout! Learn more

10-Day Weather Forecast

Advertisements
Track Severe Weather on mobile